sensor_id;sensor_type;location;lat;lon;timestamp;P1;durP1;ratioP1;P2;durP2;ratioP2
1136;SDS011;557;48.466;7.950;2023-11-22T00:02:18;18.40;;;12.03;;
1136;SDS011;557;48.466;7.950;2023-11-22T00:04:45;16.43;;;12.10;;
1136;SDS011;557;48.466;7.950;2023-11-22T00:07:12;20.53;;;11.20;;
1136;SDS011;557;48.466;7.950;2023-11-22T00:09:39;21.67;;;12.63;;
1136;SDS011;557;48.466;7.950;2023-11-22T00:12:08;22.47;;;14.00;;
1136;SDS011;557;48.466;7.950;2023-11-22T00:14:35;20.13;;;11.93;;
1136;SDS011;557;48.466;7.950;2023-11-22T00:17:02;23.00;;;13.40;;
1136;SDS011;557;48.466;7.950;2023-11-22T00:19:30;23.43;;;14.00;;
1136;SDS011;557;48.466;7.950;2023-11-22T00:21:57;24.93;;;14.00;;
1136;SDS011;557;48.466;7.950;2023-11-22T00:24:24;20.60;;;13.97;;
1136;SDS011;557;48.466;7.950;2023-11-22T00:26:51;25.60;;;15.60;;
1136;SDS011;557;48.466;7.950;2023-11-22T00:29:18;25.30;;;14.57;;
1136;SDS011;557;48.466;7.950;2023-11-22T00:31:45;25.73;;;16.67;;
1136;SDS011;557;48.466;7.950;2023-11-22T00:34:12;24.47;;;16.13;;
1136;SDS011;557;48.466;7.950;2023-11-22T00:36:40;19.77;;;14.37;;
1136;SDS011;557;48.466;7.950;2023-11-22T00:39:06;25.43;;;14.60;;
1136;SDS011;557;48.466;7.950;2023-11-22T00:41:34;22.43;;;14.20;;
1136;SDS011;557;48.466;7.950;2023-11-22T00:44:01;18.73;;;12.53;;
1136;SDS011;557;48.466;7.950;2023-11-22T00:46:28;20.93;;;13.13;;
1136;SDS011;557;48.466;7.950;2023-11-22T00:48:55;18.63;;;11.90;;
1136;SDS011;557;48.466;7.950;2023-11-22T00:51:22;18.83;;;10.90;;
1136;SDS011;557;48.466;7.950;2023-11-22T00:53:50;17.20;;;10.70;;
1136;SDS011;557;48.466;7.950;2023-11-22T00:56:17;20.30;;;11.77;;
1136;SDS011;557;48.466;7.950;2023-11-22T00:58:44;21.67;;;12.67;;
1136;SDS011;557;48.466;7.950;2023-11-22T01:01:11;16.50;;;11.00;;
1136;SDS011;557;48.466;7.950;2023-11-22T01:03:38;17.13;;;11.37;;
1136;SDS011;557;48.466;7.950;2023-11-22T01:06:05;20.43;;;11.20;;
1136;SDS011;557;48.466;7.950;2023-11-22T01:08:32;18.90;;;11.00;;
1136;SDS011;557;48.466;7.950;2023-11-22T01:11:02;17.03;;;10.60;;
1136;SDS011;557;48.466;7.950;2023-11-22T01:13:29;16.50;;;10.83;;
1136;SDS011;557;48.466;7.950;2023-11-22T01:15:56;16.77;;;10.30;;
1136;SDS011;557;48.466;7.950;2023-11-22T01:18:23;18.27;;;9.90;;
1136;SDS011;557;48.466;7.950;2023-11-22T01:20:49;15.90;;;9.67;;
1136;SDS011;557;48.466;7.950;2023-11-22T01:23:16;18.47;;;11.70;;
1136;SDS011;557;48.466;7.950;2023-11-22T01:25:43;17.30;;;10.73;;
1136;SDS011;557;48.466;7.950;2023-11-22T01:28:11;18.23;;;11.07;;
1136;SDS011;557;48.466;7.950;2023-11-22T01:30:38;17.27;;;11.27;;
1136;SDS011;557;48.466;7.950;2023-11-22T01:33:05;17.70;;;9.73;;
1136;SDS011;557;48.466;7.950;2023-11-22T01:35:31;14.83;;;9.87;;
1136;SDS011;557;48.466;7.950;2023-11-22T01:37:59;15.57;;;9.83;;
1136;SDS011;557;48.466;7.950;2023-11-22T01:40:29;15.50;;;9.50;;
1136;SDS011;557;48.466;7.950;2023-11-22T01:42:56;16.10;;;9.77;;
1136;SDS011;557;48.466;7.950;2023-11-22T01:45:24;13.20;;;8.67;;
1136;SDS011;557;48.466;7.950;2023-11-22T01:47:52;13.93;;;8.70;;
1136;SDS011;557;48.466;7.950;2023-11-22T01:50:19;14.53;;;8.57;;
1136;SDS011;557;48.466;7.950;2023-11-22T01:52:46;13.90;;;8.50;;
1136;SDS011;557;48.466;7.950;2023-11-22T01:55:13;11.07;;;8.20;;
1136;SDS011;557;48.466;7.950;2023-11-22T01:57:42;12.50;;;8.90;;
1136;SDS011;557;48.466;7.950;2023-11-22T02:00:09;11.37;;;8.47;;
1136;SDS011;557;48.466;7.950;2023-11-22T02:02:41;10.00;;;7.03;;
1136;SDS011;557;48.466;7.950;2023-11-22T02:05:08;12.07;;;8.03;;
1136;SDS011;557;48.466;7.950;2023-11-22T02:07:37;11.63;;;7.07;;
1136;SDS011;557;48.466;7.950;2023-11-22T02:10:06;10.60;;;7.43;;
1136;SDS011;557;48.466;7.950;2023-11-22T02:12:33;10.03;;;7.50;;
1136;SDS011;557;48.466;7.950;2023-11-22T02:15:00;13.30;;;7.83;;
1136;SDS011;557;48.466;7.950;2023-11-22T02:17:28;12.87;;;8.10;;
1136;SDS011;557;48.466;7.950;2023-11-22T02:19:56;11.47;;;8.17;;
1136;SDS011;557;48.466;7.950;2023-11-22T02:22:23;12.43;;;8.00;;
1136;SDS011;557;48.466;7.950;2023-11-22T02:24:51;11.57;;;8.17;;
1136;SDS011;557;48.466;7.950;2023-11-22T02:27:18;11.80;;;7.80;;
1136;SDS011;557;48.466;7.950;2023-11-22T02:29:45;13.47;;;8.20;;
1136;SDS011;557;48.466;7.950;2023-11-22T02:32:12;12.53;;;7.87;;
1136;SDS011;557;48.466;7.950;2023-11-22T02:34:39;11.97;;;7.67;;
1136;SDS011;557;48.466;7.950;2023-11-22T02:37:05;11.03;;;7.90;;
1136;SDS011;557;48.466;7.950;2023-11-22T02:39:35;12.70;;;8.43;;
1136;SDS011;557;48.466;7.950;2023-11-22T02:42:09;12.40;;;8.97;;
1136;SDS011;557;48.466;7.950;2023-11-22T02:44:36;12.53;;;8.57;;
1136;SDS011;557;48.466;7.950;2023-11-22T02:47:04;13.23;;;8.47;;
1136;SDS011;557;48.466;7.950;2023-11-22T02:49:30;11.90;;;7.80;;
1136;SDS011;557;48.466;7.950;2023-11-22T02:51:57;12.80;;;8.93;;
1136;SDS011;557;48.466;7.950;2023-11-22T02:54:24;12.70;;;8.90;;
1136;SDS011;557;48.466;7.950;2023-11-22T02:56:51;11.67;;;8.90;;
1136;SDS011;557;48.466;7.950;2023-11-22T02:59:19;12.20;;;8.13;;
1136;SDS011;557;48.466;7.950;2023-11-22T03:01:46;15.40;;;7.93;;
1136;SDS011;557;48.466;7.950;2023-11-22T03:04:13;11.73;;;8.17;;
1136;SDS011;557;48.466;7.950;2023-11-22T03:06:40;12.10;;;7.70;;
1136;SDS011;557;48.466;7.950;2023-11-22T03:09:06;11.80;;;7.90;;
1136;SDS011;557;48.466;7.950;2023-11-22T03:11:33;9.03;;;6.53;;
1136;SDS011;557;48.466;7.950;2023-11-22T03:14:01;9.93;;;6.80;;
1136;SDS011;557;48.466;7.950;2023-11-22T03:16:30;8.00;;;6.03;;
1136;SDS011;557;48.466;7.950;2023-11-22T03:18:57;9.90;;;6.57;;
1136;SDS011;557;48.466;7.950;2023-11-22T03:21:24;14.50;;;7.77;;
1136;SDS011;557;48.466;7.950;2023-11-22T03:23:52;8.93;;;6.80;;
1136;SDS011;557;48.466;7.950;2023-11-22T03:26:19;9.57;;;6.67;;
1136;SDS011;557;48.466;7.950;2023-11-22T03:28:46;11.60;;;6.97;;
1136;SDS011;557;48.466;7.950;2023-11-22T03:31:13;9.50;;;6.20;;
1136;SDS011;557;48.466;7.950;2023-11-22T03:33:42;9.33;;;6.67;;
1136;SDS011;557;48.466;7.950;2023-11-22T03:36:08;9.17;;;6.07;;
1136;SDS011;557;48.466;7.950;2023-11-22T03:38:36;7.33;;;4.63;;
1136;SDS011;557;48.466;7.950;2023-11-22T03:41:03;8.90;;;6.27;;
1136;SDS011;557;48.466;7.950;2023-11-22T03:43:30;8.70;;;4.70;;
1136;SDS011;557;48.466;7.950;2023-11-22T03:45:57;11.87;;;5.93;;
1136;SDS011;557;48.466;7.950;2023-11-22T03:48:23;8.07;;;5.40;;
1136;SDS011;557;48.466;7.950;2023-11-22T03:50:52;7.33;;;4.67;;
1136;SDS011;557;48.466;7.950;2023-11-22T03:53:19;8.10;;;4.53;;
1136;SDS011;557;48.466;7.950;2023-11-22T03:55:48;5.33;;;3.40;;
1136;SDS011;557;48.466;7.950;2023-11-22T03:58:15;5.30;;;4.40;;
1136;SDS011;557;48.466;7.950;2023-11-22T04:00:43;6.10;;;3.90;;
1136;SDS011;557;48.466;7.950;2023-11-22T04:03:10;5.00;;;3.73;;
1136;SDS011;557;48.466;7.950;2023-11-22T04:05:37;5.03;;;3.83;;
1136;SDS011;557;48.466;7.950;2023-11-22T04:08:05;6.03;;;3.77;;
1136;SDS011;557;48.466;7.950;2023-11-22T04:10:33;5.23;;;3.83;;
1136;SDS011;557;48.466;7.950;2023-11-22T04:13:00;4.60;;;3.50;;
1136;SDS011;557;48.466;7.950;2023-11-22T04:15:27;5.20;;;3.70;;
1136;SDS011;557;48.466;7.950;2023-11-22T04:17:54;4.60;;;3.47;;
1136;SDS011;557;48.466;7.950;2023-11-22T04:20:20;5.90;;;3.60;;
1136;SDS011;557;48.466;7.950;2023-11-22T04:22:47;5.27;;;3.87;;
1136;SDS011;557;48.466;7.950;2023-11-22T04:25:16;4.43;;;3.20;;
1136;SDS011;557;48.466;7.950;2023-11-22T04:27:43;4.87;;;3.50;;
1136;SDS011;557;48.466;7.950;2023-11-22T04:30:10;5.33;;;3.03;;
1136;SDS011;557;48.466;7.950;2023-11-22T04:32:39;6.00;;;3.47;;
1136;SDS011;557;48.466;7.950;2023-11-22T04:35:06;5.60;;;3.20;;
1136;SDS011;557;48.466;7.950;2023-11-22T04:37:34;4.53;;;3.10;;
1136;SDS011;557;48.466;7.950;2023-11-22T04:40:02;4.30;;;3.27;;
1136;SDS011;557;48.466;7.950;2023-11-22T04:42:34;4.73;;;3.17;;
1136;SDS011;557;48.466;7.950;2023-11-22T04:45:01;4.03;;;2.63;;
1136;SDS011;557;48.466;7.950;2023-11-22T04:47:28;6.57;;;3.77;;
1136;SDS011;557;48.466;7.950;2023-11-22T04:49:55;3.90;;;3.03;;
1136;SDS011;557;48.466;7.950;2023-11-22T04:52:22;4.40;;;3.33;;
1136;SDS011;557;48.466;7.950;2023-11-22T04:54:49;4.97;;;3.47;;
1136;SDS011;557;48.466;7.950;2023-11-22T04:57:15;5.23;;;3.10;;
1136;SDS011;557;48.466;7.950;2023-11-22T04:59:44;4.77;;;3.67;;
1136;SDS011;557;48.466;7.950;2023-11-22T05:02:11;4.73;;;3.67;;
1136;SDS011;557;48.466;7.950;2023-11-22T05:04:39;4.60;;;3.07;;
1136;SDS011;557;48.466;7.950;2023-11-22T05:07:06;4.10;;;3.37;;
1136;SDS011;557;48.466;7.950;2023-11-22T05:09:32;4.40;;;3.20;;
1136;SDS011;557;48.466;7.950;2023-11-22T05:11:59;3.80;;;2.87;;
1136;SDS011;557;48.466;7.950;2023-11-22T05:14:26;4.37;;;3.57;;
1136;SDS011;557;48.466;7.950;2023-11-22T05:16:54;3.77;;;2.93;;
1136;SDS011;557;48.466;7.950;2023-11-22T05:19:21;4.17;;;2.90;;
1136;SDS011;557;48.466;7.950;2023-11-22T05:21:48;4.03;;;3.40;;
1136;SDS011;557;48.466;7.950;2023-11-22T05:24:15;5.73;;;3.40;;
1136;SDS011;557;48.466;7.950;2023-11-22T05:26:42;4.10;;;3.03;;
1136;SDS011;557;48.466;7.950;2023-11-22T05:29:09;4.97;;;3.50;;
1136;SDS011;557;48.466;7.950;2023-11-22T05:31:36;5.63;;;3.63;;
1136;SDS011;557;48.466;7.950;2023-11-22T05:34:04;7.53;;;4.63;;
1136;SDS011;557;48.466;7.950;2023-11-22T05:36:32;6.40;;;4.33;;
1136;SDS011;557;48.466;7.950;2023-11-22T05:38:58;6.70;;;4.47;;
1136;SDS011;557;48.466;7.950;2023-11-22T05:41:25;6.50;;;4.70;;
1136;SDS011;557;48.466;7.950;2023-11-22T05:43:52;7.30;;;5.20;;
1136;SDS011;557;48.466;7.950;2023-11-22T05:46:19;7.37;;;5.33;;
1136;SDS011;557;48.466;7.950;2023-11-22T05:48:47;7.23;;;4.87;;
1136;SDS011;557;48.466;7.950;2023-11-22T05:51:17;7.20;;;4.73;;
1136;SDS011;557;48.466;7.950;2023-11-22T05:53:44;7.07;;;5.33;;
1136;SDS011;557;48.466;7.950;2023-11-22T05:56:11;7.70;;;5.70;;
1136;SDS011;557;48.466;7.950;2023-11-22T05:58:38;8.63;;;5.70;;
1136;SDS011;557;48.466;7.950;2023-11-22T06:01:05;6.40;;;4.90;;
1136;SDS011;557;48.466;7.950;2023-11-22T06:03:34;7.40;;;4.87;;
1136;SDS011;557;48.466;7.950;2023-11-22T06:06:02;6.93;;;5.67;;
1136;SDS011;557;48.466;7.950;2023-11-22T06:08:30;7.50;;;5.30;;
1136;SDS011;557;48.466;7.950;2023-11-22T06:10:57;9.37;;;6.53;;
1136;SDS011;557;48.466;7.950;2023-11-22T06:13:25;6.63;;;5.00;;
1136;SDS011;557;48.466;7.950;2023-11-22T06:15:52;7.10;;;5.23;;
1136;SDS011;557;48.466;7.950;2023-11-22T06:18:19;9.57;;;5.90;;
1136;SDS011;557;48.466;7.950;2023-11-22T06:20:46;9.67;;;5.17;;
1136;SDS011;557;48.466;7.950;2023-11-22T06:23:13;8.70;;;5.40;;
1136;SDS011;557;48.466;7.950;2023-11-22T06:25:42;9.33;;;5.93;;
1136;SDS011;557;48.466;7.950;2023-11-22T06:28:09;8.17;;;5.60;;
1136;SDS011;557;48.466;7.950;2023-11-22T06:30:37;7.50;;;5.20;;
1136;SDS011;557;48.466;7.950;2023-11-22T06:33:04;9.93;;;6.07;;
1136;SDS011;557;48.466;7.950;2023-11-22T06:35:31;8.30;;;5.33;;
1136;SDS011;557;48.466;7.950;2023-11-22T06:37:58;7.30;;;4.97;;
1136;SDS011;557;48.466;7.950;2023-11-22T06:40:25;7.17;;;5.10;;
1136;SDS011;557;48.466;7.950;2023-11-22T06:42:56;6.77;;;5.27;;
1136;SDS011;557;48.466;7.950;2023-11-22T06:45:23;7.43;;;5.20;;
1136;SDS011;557;48.466;7.950;2023-11-22T06:47:50;6.70;;;5.27;;
1136;SDS011;557;48.466;7.950;2023-11-22T06:50:19;6.67;;;4.53;;
1136;SDS011;557;48.466;7.950;2023-11-22T06:52:57;7.03;;;5.40;;
1136;SDS011;557;48.466;7.950;2023-11-22T06:55:24;9.13;;;5.40;;
1136;SDS011;557;48.466;7.950;2023-11-22T06:57:52;8.13;;;5.13;;
1136;SDS011;557;48.466;7.950;2023-11-22T07:00:21;7.20;;;5.40;;
1136;SDS011;557;48.466;7.950;2023-11-22T07:02:48;6.63;;;4.50;;
1136;SDS011;557;48.466;7.950;2023-11-22T07:05:14;7.60;;;6.37;;
1136;SDS011;557;48.466;7.950;2023-11-22T07:07:41;7.07;;;5.13;;
1136;SDS011;557;48.466;7.950;2023-11-22T07:10:08;8.33;;;4.90;;
1136;SDS011;557;48.466;7.950;2023-11-22T07:12:36;6.63;;;4.97;;
1136;SDS011;557;48.466;7.950;2023-11-22T07:15:05;7.40;;;5.03;;
1136;SDS011;557;48.466;7.950;2023-11-22T07:17:36;9.23;;;5.40;;
1136;SDS011;557;48.466;7.950;2023-11-22T07:20:04;7.83;;;5.00;;
1136;SDS011;557;48.466;7.950;2023-11-22T07:22:34;9.10;;;5.70;;
1136;SDS011;557;48.466;7.950;2023-11-22T07:25:01;7.27;;;5.27;;
1136;SDS011;557;48.466;7.950;2023-11-22T07:27:29;7.90;;;5.10;;
1136;SDS011;557;48.466;7.950;2023-11-22T07:29:57;7.23;;;4.60;;
1136;SDS011;557;48.466;7.950;2023-11-22T07:32:24;9.80;;;6.27;;
1136;SDS011;557;48.466;7.950;2023-11-22T07:34:52;10.10;;;5.63;;
1136;SDS011;557;48.466;7.950;2023-11-22T07:37:21;10.97;;;5.53;;
1136;SDS011;557;48.466;7.950;2023-11-22T07:39:49;8.90;;;5.83;;
1136;SDS011;557;48.466;7.950;2023-11-22T07:42:16;8.53;;;5.40;;
1136;SDS011;557;48.466;7.950;2023-11-22T07:44:43;8.30;;;5.43;;
1136;SDS011;557;48.466;7.950;2023-11-22T07:47:11;8.30;;;5.87;;
1136;SDS011;557;48.466;7.950;2023-11-22T07:49:38;8.17;;;5.77;;
1136;SDS011;557;48.466;7.950;2023-11-22T07:52:08;8.97;;;6.17;;
1136;SDS011;557;48.466;7.950;2023-11-22T07:54:38;7.90;;;5.40;;
1136;SDS011;557;48.466;7.950;2023-11-22T07:57:05;6.53;;;4.70;;
1136;SDS011;557;48.466;7.950;2023-11-22T07:59:32;7.57;;;5.30;;
1136;SDS011;557;48.466;7.950;2023-11-22T08:01:59;8.50;;;5.50;;
1136;SDS011;557;48.466;7.950;2023-11-22T08:04:27;7.30;;;5.33;;
1136;SDS011;557;48.466;7.950;2023-11-22T08:06:57;7.17;;;4.97;;
1136;SDS011;557;48.466;7.950;2023-11-22T08:09:25;7.90;;;5.13;;
1136;SDS011;557;48.466;7.950;2023-11-22T08:11:56;7.43;;;5.40;;
1136;SDS011;557;48.466;7.950;2023-11-22T08:14:23;5.83;;;4.20;;
1136;SDS011;557;48.466;7.950;2023-11-22T08:16:52;8.33;;;4.37;;
1136;SDS011;557;48.466;7.950;2023-11-22T08:19:19;8.00;;;4.67;;
1136;SDS011;557;48.466;7.950;2023-11-22T08:21:50;6.80;;;4.47;;
1136;SDS011;557;48.466;7.950;2023-11-22T08:24:21;7.53;;;4.60;;
1136;SDS011;557;48.466;7.950;2023-11-22T08:26:53;7.77;;;4.90;;
1136;SDS011;557;48.466;7.950;2023-11-22T08:29:20;5.63;;;3.83;;
1136;SDS011;557;48.466;7.950;2023-11-22T08:31:47;6.13;;;4.50;;
1136;SDS011;557;48.466;7.950;2023-11-22T08:34:15;6.10;;;3.70;;
1136;SDS011;557;48.466;7.950;2023-11-22T08:36:42;7.80;;;4.93;;
1136;SDS011;557;48.466;7.950;2023-11-22T08:39:09;5.53;;;4.33;;
1136;SDS011;557;48.466;7.950;2023-11-22T08:41:36;5.23;;;4.10;;
1136;SDS011;557;48.466;7.950;2023-11-22T08:44:05;6.13;;;4.20;;
1136;SDS011;557;48.466;7.950;2023-11-22T08:46:32;5.80;;;4.10;;
1136;SDS011;557;48.466;7.950;2023-11-22T08:49:01;6.03;;;4.23;;
1136;SDS011;557;48.466;7.950;2023-11-22T08:51:35;5.43;;;4.10;;
1136;SDS011;557;48.466;7.950;2023-11-22T08:54:02;5.57;;;3.80;;
1136;SDS011;557;48.466;7.950;2023-11-22T08:56:29;8.10;;;4.33;;
1136;SDS011;557;48.466;7.950;2023-11-22T08:58:56;5.27;;;3.70;;
1136;SDS011;557;48.466;7.950;2023-11-22T09:01:24;7.90;;;4.50;;
1136;SDS011;557;48.466;7.950;2023-11-22T09:03:51;5.50;;;3.80;;
1136;SDS011;557;48.466;7.950;2023-11-22T09:06:18;5.10;;;3.97;;
1136;SDS011;557;48.466;7.950;2023-11-22T09:08:45;6.27;;;4.37;;
1136;SDS011;557;48.466;7.950;2023-11-22T09:11:14;4.47;;;3.97;;
1136;SDS011;557;48.466;7.950;2023-11-22T09:13:45;6.70;;;4.90;;
1136;SDS011;557;48.466;7.950;2023-11-22T09:16:11;5.63;;;4.00;;
1136;SDS011;557;48.466;7.950;2023-11-22T09:18:40;5.60;;;4.90;;
1136;SDS011;557;48.466;7.950;2023-11-22T09:21:06;4.90;;;3.97;;
1136;SDS011;557;48.466;7.950;2023-11-22T09:23:34;5.37;;;4.50;;
1136;SDS011;557;48.466;7.950;2023-11-22T09:26:02;6.80;;;4.20;;
1136;SDS011;557;48.466;7.950;2023-11-22T09:28:30;4.80;;;3.60;;
1136;SDS011;557;48.466;7.950;2023-11-22T09:30:57;5.10;;;3.80;;
1136;SDS011;557;48.466;7.950;2023-11-22T09:33:31;6.60;;;3.90;;
1136;SDS011;557;48.466;7.950;2023-11-22T09:35:59;4.67;;;3.97;;
1136;SDS011;557;48.466;7.950;2023-11-22T09:38:29;5.17;;;3.60;;
1136;SDS011;557;48.466;7.950;2023-11-22T09:40:55;6.13;;;3.80;;
1136;SDS011;557;48.466;7.950;2023-11-22T09:43:24;5.00;;;4.00;;
1136;SDS011;557;48.466;7.950;2023-11-22T09:45:54;4.93;;;3.87;;
1136;SDS011;557;48.466;7.950;2023-11-22T09:48:22;6.63;;;4.10;;
1136;SDS011;557;48.466;7.950;2023-11-22T09:50:54;4.83;;;3.73;;
1136;SDS011;557;48.466;7.950;2023-11-22T09:53:30;4.23;;;3.30;;
1136;SDS011;557;48.466;7.950;2023-11-22T09:55:58;4.47;;;4.03;;
1136;SDS011;557;48.466;7.950;2023-11-22T09:58:28;3.97;;;3.30;;
1136;SDS011;557;48.466;7.950;2023-11-22T10:00:57;5.07;;;3.80;;
1136;SDS011;557;48.466;7.950;2023-11-22T10:03:25;7.50;;;3.87;;
1136;SDS011;557;48.466;7.950;2023-11-22T10:05:53;4.67;;;3.37;;
1136;SDS011;557;48.466;7.950;2023-11-22T10:08:22;4.30;;;3.50;;
1136;SDS011;557;48.466;7.950;2023-11-22T10:10:51;4.70;;;4.07;;
1136;SDS011;557;48.466;7.950;2023-11-22T10:13:19;4.43;;;3.90;;
1136;SDS011;557;48.466;7.950;2023-11-22T10:15:46;4.83;;;4.30;;
1136;SDS011;557;48.466;7.950;2023-11-22T10:18:14;4.33;;;3.77;;
1136;SDS011;557;48.466;7.950;2023-11-22T10:20:43;6.10;;;4.10;;
1136;SDS011;557;48.466;7.950;2023-11-22T10:23:12;4.37;;;3.97;;
1136;SDS011;557;48.466;7.950;2023-11-22T10:25:43;4.77;;;3.93;;
1136;SDS011;557;48.466;7.950;2023-11-22T10:28:14;4.80;;;3.63;;
1136;SDS011;557;48.466;7.950;2023-11-22T10:30:44;5.03;;;3.90;;
1136;SDS011;557;48.466;7.950;2023-11-22T10:33:12;7.03;;;3.73;;
1136;SDS011;557;48.466;7.950;2023-11-22T10:35:42;4.17;;;3.77;;
1136;SDS011;557;48.466;7.950;2023-11-22T10:38:12;5.30;;;3.90;;
1136;SDS011;557;48.466;7.950;2023-11-22T10:40:40;6.13;;;4.40;;
1136;SDS011;557;48.466;7.950;2023-11-22T10:43:09;4.23;;;3.83;;
1136;SDS011;557;48.466;7.950;2023-11-22T10:45:39;4.20;;;3.80;;
1136;SDS011;557;48.466;7.950;2023-11-22T10:48:11;5.80;;;4.57;;
1136;SDS011;557;48.466;7.950;2023-11-22T10:50:41;4.73;;;4.23;;
1136;SDS011;557;48.466;7.950;2023-11-22T10:53:10;5.03;;;3.93;;
1136;SDS011;557;48.466;7.950;2023-11-22T10:55:41;5.10;;;4.60;;
1136;SDS011;557;48.466;7.950;2023-11-22T10:58:10;6.20;;;4.73;;
1136;SDS011;557;48.466;7.950;2023-11-22T11:00:41;5.63;;;4.57;;
1136;SDS011;557;48.466;7.950;2023-11-22T11:03:11;4.70;;;4.27;;
1136;SDS011;557;48.466;7.950;2023-11-22T11:05:41;4.63;;;4.20;;
1136;SDS011;557;48.466;7.950;2023-11-22T11:08:13;5.20;;;3.90;;
1136;SDS011;557;48.466;7.950;2023-11-22T11:10:45;5.00;;;4.07;;
1136;SDS011;557;48.466;7.950;2023-11-22T11:13:14;7.83;;;4.60;;
1136;SDS011;557;48.466;7.950;2023-11-22T11:15:42;5.53;;;4.83;;
1136;SDS011;557;48.466;7.950;2023-11-22T11:18:11;5.70;;;5.10;;
1136;SDS011;557;48.466;7.950;2023-11-22T11:20:44;5.30;;;4.90;;
1136;SDS011;557;48.466;7.950;2023-11-22T11:23:13;5.67;;;5.07;;
1136;SDS011;557;48.466;7.950;2023-11-22T11:25:41;5.43;;;4.93;;
1136;SDS011;557;48.466;7.950;2023-11-22T11:28:09;5.90;;;5.00;;
1136;SDS011;557;48.466;7.950;2023-11-22T11:30:42;5.87;;;5.37;;
1136;SDS011;557;48.466;7.950;2023-11-22T11:33:11;5.47;;;4.97;;
1136;SDS011;557;48.466;7.950;2023-11-22T11:35:41;5.70;;;4.90;;
1136;SDS011;557;48.466;7.950;2023-11-22T11:38:12;6.17;;;5.57;;
1136;SDS011;557;48.466;7.950;2023-11-22T11:40:40;6.20;;;5.60;;
1136;SDS011;557;48.466;7.950;2023-11-22T11:43:07;5.40;;;4.87;;
1136;SDS011;557;48.466;7.950;2023-11-22T11:45:37;5.40;;;4.90;;
1136;SDS011;557;48.466;7.950;2023-11-22T11:48:08;5.63;;;5.03;;
1136;SDS011;557;48.466;7.950;2023-11-22T11:50:35;5.43;;;5.03;;
1136;SDS011;557;48.466;7.950;2023-11-22T11:53:02;6.07;;;5.40;;
1136;SDS011;557;48.466;7.950;2023-11-22T11:55:29;5.40;;;4.90;;
1136;SDS011;557;48.466;7.950;2023-11-22T11:57:56;6.20;;;5.60;;
1136;SDS011;557;48.466;7.950;2023-11-22T12:00:30;5.60;;;5.00;;
1136;SDS011;557;48.466;7.950;2023-11-22T12:02:57;6.30;;;5.70;;
1136;SDS011;557;48.466;7.950;2023-11-22T12:05:25;5.37;;;4.87;;
1136;SDS011;557;48.466;7.950;2023-11-22T12:07:53;5.40;;;4.90;;
1136;SDS011;557;48.466;7.950;2023-11-22T12:10:20;6.97;;;5.73;;
1136;SDS011;557;48.466;7.950;2023-11-22T12:12:49;5.23;;;4.73;;
1136;SDS011;557;48.466;7.950;2023-11-22T12:15:17;5.40;;;4.90;;
1136;SDS011;557;48.466;7.950;2023-11-22T12:17:44;5.80;;;4.50;;
1136;SDS011;557;48.466;7.950;2023-11-22T12:20:11;5.83;;;5.13;;
1136;SDS011;557;48.466;7.950;2023-11-22T12:22:42;6.87;;;6.20;;
1136;SDS011;557;48.466;7.950;2023-11-22T12:25:10;5.37;;;4.87;;
1136;SDS011;557;48.466;7.950;2023-11-22T12:27:38;6.30;;;5.70;;
1136;SDS011;557;48.466;7.950;2023-11-22T12:30:07;6.50;;;5.97;;
1136;SDS011;557;48.466;7.950;2023-11-22T12:32:34;5.80;;;5.30;;
1136;SDS011;557;48.466;7.950;2023-11-22T12:35:06;5.80;;;5.30;;
1136;SDS011;557;48.466;7.950;2023-11-22T12:37:37;6.10;;;5.50;;
1136;SDS011;557;48.466;7.950;2023-11-22T12:40:10;6.27;;;5.67;;
1136;SDS011;557;48.466;7.950;2023-11-22T12:42:46;6.10;;;5.50;;
1136;SDS011;557;48.466;7.950;2023-11-22T12:45:18;5.30;;;4.90;;
1136;SDS011;557;48.466;7.950;2023-11-22T12:47:46;6.20;;;5.60;;
1136;SDS011;557;48.466;7.950;2023-11-22T12:50:29;7.00;;;5.40;;
1136;SDS011;557;48.466;7.950;2023-11-22T12:52:57;6.10;;;5.43;;
1136;SDS011;557;48.466;7.950;2023-11-22T12:55:25;6.70;;;6.00;;
1136;SDS011;557;48.466;7.950;2023-11-22T12:57:56;5.90;;;5.40;;
1136;SDS011;557;48.466;7.950;2023-11-22T13:00:24;7.07;;;6.37;;
1136;SDS011;557;48.466;7.950;2023-11-22T13:02:54;6.20;;;5.60;;
1136;SDS011;557;48.466;7.950;2023-11-22T13:05:21;7.77;;;6.40;;
1136;SDS011;557;48.466;7.950;2023-11-22T13:07:48;6.40;;;5.33;;
1136;SDS011;557;48.466;7.950;2023-11-22T13:10:16;4.97;;;4.47;;
1136;SDS011;557;48.466;7.950;2023-11-22T13:12:44;7.50;;;6.10;;
1136;SDS011;557;48.466;7.950;2023-11-22T13:15:12;7.47;;;5.30;;
1136;SDS011;557;48.466;7.950;2023-11-22T13:17:39;6.13;;;5.03;;
1136;SDS011;557;48.466;7.950;2023-11-22T13:20:06;5.90;;;5.10;;
1136;SDS011;557;48.466;7.950;2023-11-22T13:22:39;6.33;;;5.70;;
1136;SDS011;557;48.466;7.950;2023-11-22T13:25:06;7.87;;;5.30;;
1136;SDS011;557;48.466;7.950;2023-11-22T13:27:35;5.83;;;5.33;;
1136;SDS011;557;48.466;7.950;2023-11-22T13:30:04;5.90;;;5.40;;
1136;SDS011;557;48.466;7.950;2023-11-22T13:32:31;6.73;;;5.80;;
1136;SDS011;557;48.466;7.950;2023-11-22T13:34:59;5.73;;;5.23;;
1136;SDS011;557;48.466;7.950;2023-11-22T13:37:26;6.00;;;5.40;;
1136;SDS011;557;48.466;7.950;2023-11-22T13:39:53;7.00;;;5.37;;
1136;SDS011;557;48.466;7.950;2023-11-22T13:42:20;5.77;;;5.07;;
1136;SDS011;557;48.466;7.950;2023-11-22T13:44:46;6.30;;;5.70;;
1136;SDS011;557;48.466;7.950;2023-11-22T13:47:15;6.03;;;5.53;;
1136;SDS011;557;48.466;7.950;2023-11-22T13:49:44;6.03;;;5.53;;
1136;SDS011;557;48.466;7.950;2023-11-22T13:52:11;5.73;;;5.10;;
1136;SDS011;557;48.466;7.950;2023-11-22T13:54:37;7.47;;;5.77;;
1136;SDS011;557;48.466;7.950;2023-11-22T13:57:05;7.97;;;6.70;;
1136;SDS011;557;48.466;7.950;2023-11-22T13:59:32;6.40;;;5.57;;
1136;SDS011;557;48.466;7.950;2023-11-22T14:01:59;8.83;;;5.90;;
1136;SDS011;557;48.466;7.950;2023-11-22T14:04:28;6.17;;;5.57;;
1136;SDS011;557;48.466;7.950;2023-11-22T14:06:55;7.80;;;5.20;;
1136;SDS011;557;48.466;7.950;2023-11-22T14:09:22;6.30;;;5.40;;
1136;SDS011;557;48.466;7.950;2023-11-22T14:11:49;6.40;;;5.80;;
1136;SDS011;557;48.466;7.950;2023-11-22T14:14:16;7.70;;;5.13;;
1136;SDS011;557;48.466;7.950;2023-11-22T14:16:44;5.70;;;5.20;;
1136;SDS011;557;48.466;7.950;2023-11-22T14:19:13;6.87;;;5.37;;
1136;SDS011;557;48.466;7.950;2023-11-22T14:21:41;6.00;;;5.40;;
1136;SDS011;557;48.466;7.950;2023-11-22T14:24:08;5.80;;;5.13;;
1136;SDS011;557;48.466;7.950;2023-11-22T14:26:35;5.97;;;5.40;;
1136;SDS011;557;48.466;7.950;2023-11-22T14:29:03;6.83;;;5.30;;
1136;SDS011;557;48.466;7.950;2023-11-22T14:31:31;5.77;;;5.00;;
1136;SDS011;557;48.466;7.950;2023-11-22T14:33:57;6.13;;;5.53;;
1136;SDS011;557;48.466;7.950;2023-11-22T14:36:24;6.67;;;5.63;;
1136;SDS011;557;48.466;7.950;2023-11-22T14:38:53;6.47;;;5.83;;
1136;SDS011;557;48.466;7.950;2023-11-22T14:41:21;6.23;;;5.63;;
1136;SDS011;557;48.466;7.950;2023-11-22T14:43:48;6.67;;;5.90;;
1136;SDS011;557;48.466;7.950;2023-11-22T14:46:15;6.60;;;5.90;;
1136;SDS011;557;48.466;7.950;2023-11-22T14:48:43;6.00;;;5.43;;
1136;SDS011;557;48.466;7.950;2023-11-22T14:51:12;5.90;;;5.40;;
1136;SDS011;557;48.466;7.950;2023-11-22T14:53:39;6.50;;;5.70;;
1136;SDS011;557;48.466;7.950;2023-11-22T14:56:10;7.73;;;6.23;;
1136;SDS011;557;48.466;7.950;2023-11-22T14:58:37;6.17;;;5.20;;
1136;SDS011;557;48.466;7.950;2023-11-22T15:01:05;6.30;;;5.70;;
1136;SDS011;557;48.466;7.950;2023-11-22T15:03:33;5.63;;;5.10;;
1136;SDS011;557;48.466;7.950;2023-11-22T15:06:00;6.90;;;5.63;;
1136;SDS011;557;48.466;7.950;2023-11-22T15:08:27;5.90;;;4.80;;
1136;SDS011;557;48.466;7.950;2023-11-22T15:10:54;6.10;;;5.50;;
1136;SDS011;557;48.466;7.950;2023-11-22T15:13:22;7.40;;;6.00;;
1136;SDS011;557;48.466;7.950;2023-11-22T15:15:49;6.30;;;5.70;;
1136;SDS011;557;48.466;7.950;2023-11-22T15:18:16;9.33;;;7.13;;
1136;SDS011;557;48.466;7.950;2023-11-22T15:20:43;6.30;;;5.50;;
1136;SDS011;557;48.466;7.950;2023-11-22T15:23:10;6.60;;;5.97;;
1136;SDS011;557;48.466;7.950;2023-11-22T15:25:37;8.77;;;6.63;;
1136;SDS011;557;48.466;7.950;2023-11-22T15:28:04;6.40;;;5.70;;
1136;SDS011;557;48.466;7.950;2023-11-22T15:30:33;6.50;;;5.90;;